Millersville, MD

6:28 AM EDT on May 03, 2015 (GMT -0400)
MID-ATLANTIC TOWER | | Change Station
CLOSE
Current Station
Personal Weather Station
Location: Millersville, MD
Elevation: 125 ft
Nearby Weather Stations

Elev 125 ft 39.10 °N, 76.62 °W | Updated 17 seconds ago

Partly Cloudy
Partly Cloudy
52.9 °F
Feels Like 52.9 °F
N
0.0
Wind Variable Wind from North

Today
High -- | Low -- °F
--% Chance of Precip.
Yesterday
High -- | Low -- °F
Precip. -- in
6:06 AM 8:01 PM
Waxing Gibbous, 99% visible
Pressure 30.04 in
Visibility 10.0 miles
Clouds Scattered Clouds 10000 ft
Dew Point 42 °F
Humidity 67%
Rainfall 0.00 in
Snow Depth Not available.
UV 0.0 out of 12
Pollen 9.90 out of 12
Air Quality Not available.
Flu Activity Local Activity
METAR KBWI 030954Z 23004KT 10SM SCT100 08/06 A3004 RMK AO2 SLP171 T00780056

More Conditions Fewer Conditions

Pressure 30.04 in
Visibility 10.0 miles
Clouds Scattered Clouds 10000 ft
Dew Point 42 °F
Humidity 67%
Rainfall 0.00 in
Snow Depth Not available.
UV 0.0 out of 12
Pollen 9.90 out of 12
Air Quality Not available.
Flu Activity Local Activity
METAR KBWI 030954Z 23004KT 10SM SCT100 08/06 A3004 RMK AO2 SLP171 T00780056

More Conditions Fewer Conditions

Nepal has a long way to go to dig out and rebuild from a devastating earthquake. We have teamed up with several charities and organizations to make contributing to the relief effort as easy as possible.
How you can help: Portlight Strategies | Red Cross

10-Day Weather Forecast

Almanac

Astronomy

May. 03, 2015 Rise Set
Actual Time
Civil Twilight
Nautical Twilight
Astronomical Twilight
Moon
Length of Visible Light
Length of Day
Tomorrow will be .
, % of the Moon is Illuminated

Today's Extremes

State Highs State Lows

Community

WunderPhotos

Upload Photos

1,818,187 photos uploaded!

WunderBlogs® & News

Nearby

Air Quality

  Air Quality AQ Index Pollutant
Not available.

Snow Depth

Station Depth Elevation

Earthquake Activity

City Distance Mag. Time & Date
Minimum magnitude displayed is 2.5.

Coastal Water Temperatures

Place Temperature

Stations

Nearby Weather Stations

Station Location Temp. Windchill Dew Point Humidity Wind Precip. Elev Updated Type
                   
Flood Watch / Flood Statement
Statement as of 6:17 AM EDT on May 03, 2015

... Coastal Flood Advisory is cancelled...

The National Weather Service in Baltimore MD/Washington has
cancelled the coastal Flood Advisory.